Time;durP1;ratioP1;P1;durP2;ratioP2;P2;SDS_P1;SDS_P2;PMS_P1;PMS_P2;Temp;Humidity;BMP_temperature;BMP_pressure;BME280_temperature;BME280_humidity;BME280_pressure;Samples;Min_cycle;Max_cycle;Signal;HPM_P1;HPM_P2
2021/07/05 00:00:34;;;;;;;8.88;3.00;;;18.80;99.90;;;;;;5005989;28;20394;-88
2021/07/05 00:03:00;;;;;;;11.05;3.13;;;18.80;99.90;;;;;;5012421;28;20277;-92
2021/07/05 00:05:26;;;;;;;9.65;3.70;;;18.80;99.90;;;;;;5029996;28;20021;-87
2021/07/05 00:07:52;;;;;;;13.50;3.42;;;18.90;99.90;;;;;;5029876;28;20071;-88
2021/07/05 00:10:26;;;;;;;13.30;4.25;;;18.90;99.90;;;;;;5030162;28;20402;-88
2021/07/05 00:12:53;;;;;;;10.18;3.33;;;19.00;99.90;;;;;;5030355;28;20033;-89
2021/07/05 00:15:25;;;;;;;10.80;3.25;;;19.00;99.90;;;;;;5012649;28;20028;-89
2021/07/05 00:17:56;;;;;;;12.30;3.50;;;19.10;99.90;;;;;;5000982;28;20517;-88
2021/07/05 00:20:22;;;;;;;15.43;3.67;;;19.10;99.90;;;;;;5010360;28;20022;-88
2021/07/05 00:22:49;;;;;;;11.93;3.38;;;19.20;99.90;;;;;;5010831;28;20491;-91
2021/07/05 00:25:15;;;;;;;14.85;3.65;;;19.20;99.90;;;;;;5010847;28;20379;-90
2021/07/05 00:27:42;;;;;;;16.02;3.85;;;19.20;99.90;;;;;;4998547;28;20060;-90
2021/07/05 00:30:08;;;;;;;9.73;3.35;;;19.20;99.90;;;;;;5010690;28;20021;-90
2021/07/05 00:32:34;;;;;;;15.35;3.42;;;19.20;99.90;;;;;;4996697;28;20498;-89
2021/07/05 00:35:00;;;;;;;13.55;3.97;;;19.30;99.90;;;;;;4992917;28;20026;-88
2021/07/05 00:37:26;;;;;;;16.35;3.92;;;19.30;99.90;;;;;;5012591;28;20028;-89
2021/07/05 00:39:52;;;;;;;13.52;3.40;;;19.30;99.90;;;;;;5012521;28;20056;-90
2021/07/05 00:42:17;;;;;;;12.32;3.97;;;19.20;99.90;;;;;;5011957;28;20068;-88
2021/07/05 00:44:43;;;;;;;20.08;3.90;;;19.20;99.90;;;;;;5032034;28;20390;-89
2021/07/05 00:47:09;;;;;;;13.93;3.53;;;19.20;99.90;;;;;;5033894;28;20166;-90
2021/07/05 00:49:36;;;;;;;19.33;4.43;;;19.20;99.90;;;;;;5033916;28;20018;-89
2021/07/05 00:52:02;;;;;;;22.77;4.45;;;19.10;99.90;;;;;;5033665;28;20021;-88
2021/07/05 00:54:28;;;;;;;17.80;4.38;;;19.10;99.90;;;;;;5015769;28;20030;-91
2021/07/05 00:56:54;;;;;;;13.20;3.45;;;19.10;99.90;;;;;;5015733;28;20360;-89
2021/07/05 00:59:24;;;;;;;16.67;3.83;;;19.10;99.90;;;;;;5015469;28;20033;-92
2021/07/05 01:01:50;;;;;;;14.45;3.30;;;19.10;99.90;;;;;;5012564;28;20510;-92
2021/07/05 01:04:15;;;;;;;21.98;4.15;;;19.10;99.90;;;;;;5029554;28;20057;-88
2021/07/05 01:06:41;;;;;;;16.63;3.65;;;19.10;99.90;;;;;;5025676;28;20355;-89
2021/07/05 01:09:07;;;;;;;11.85;3.35;;;19.10;99.90;;;;;;5027331;28;20654;-88
2021/07/05 01:11:32;;;;;;;15.45;3.65;;;19.10;99.90;;;;;;5033257;28;20025;-89
2021/07/05 01:13:58;;;;;;;15.55;3.40;;;19.10;99.90;;;;;;5016116;28;20343;-88
2021/07/05 01:16:24;;;;;;;8.93;3.03;;;19.20;99.90;;;;;;5020293;28;20049;-92
2021/07/05 01:18:50;;;;;;;20.10;3.53;;;19.20;99.90;;;;;;5013946;28;20037;-90
2021/07/05 01:21:15;;;;;;;11.30;3.58;;;19.30;99.90;;;;;;5014028;28;20375;-89
2021/07/05 01:23:41;;;;;;;12.45;3.35;;;19.40;99.90;;;;;;5013973;28;20026;-88
2021/07/05 01:26:07;;;;;;;9.93;2.88;;;19.40;99.90;;;;;;5002442;28;20018;-88
2021/07/05 01:28:33;;;;;;;14.55;3.35;;;19.40;99.90;;;;;;5013681;28;20034;-88
2021/07/05 01:30:59;;;;;;;17.30;3.92;;;19.50;99.90;;;;;;5013807;28;20037;-90
2021/07/05 01:33:24;;;;;;;17.60;3.90;;;19.50;99.90;;;;;;5009861;28;20036;-89
2021/07/05 01:35:50;;;;;;;15.70;3.35;;;19.50;99.90;;;;;;5013927;28;20022;-93
2021/07/05 01:38:20;;;;;;;16.02;4.00;;;19.50;99.90;;;;;;5013618;28;20405;-88
2021/07/05 01:41:02;;;;;;;15.68;4.22;;;19.60;99.90;;;;;;5031764;28;20486;-90
2021/07/05 01:43:29;;;;;;;16.17;3.95;;;19.60;99.90;;;;;;5032650;28;20022;-89
2021/07/05 01:45:56;;;;;;;19.70;3.55;;;19.60;99.90;;;;;;5011669;28;20057;-90
2021/07/05 01:48:22;;;;;;;19.23;4.65;;;19.60;99.90;;;;;;5002744;28;20080;-89
2021/07/05 01:50:47;;;;;;;16.45;3.70;;;19.50;99.90;;;;;;5011638;28;20021;-88
2021/07/05 01:53:13;;;;;;;23.80;4.78;;;19.50;99.90;;;;;;5032846;28;20032;-88
2021/07/05 01:55:39;;;;;;;18.40;4.15;;;19.50;99.90;;;;;;5032434;28;20545;-89
2021/07/05 01:58:07;;;;;;;19.85;4.47;;;19.40;99.90;;;;;;5032558;28;20203;-90
2021/07/05 02:00:34;;;;;;;26.63;5.35;;;19.40;99.90;;;;;;5011567;28;20494;-89
2021/07/05 02:03:01;;;;;;;18.75;4.32;;;19.40;99.90;;;;;;5030093;28;20536;-89
2021/07/05 02:05:27;;;;;;;29.75;6.18;;;19.40;99.90;;;;;;5014509;28;20103;-88
2021/07/05 02:07:54;;;;;;;29.58;5.18;;;19.40;99.90;;;;;;5032958;28;20032;-93
2021/07/05 02:10:24;;;;;;;26.65;5.07;;;19.40;99.90;;;;;;5032568;28;20041;-90
2021/07/05 02:12:51;;;;;;;22.95;4.75;;;19.40;99.90;;;;;;5011195;28;20033;-89
2021/07/05 02:15:17;;;;;;;32.45;6.72;;;19.40;99.90;;;;;;5017075;28;20355;-89
2021/07/05 02:17:44;;;;;;;34.72;5.75;;;19.30;99.90;;;;;;5021502;28;20050;-92
2021/07/05 02:20:14;;;;;;;21.90;5.07;;;19.30;99.90;;;;;;5011757;28;20034;-89
2021/07/05 02:22:40;;;;;;;27.50;5.65;;;19.40;99.90;;;;;;5012288;28;20021;-90
2021/07/05 02:25:09;;;;;;;26.42;5.20;;;19.30;99.90;;;;;;5012729;28;20540;-89
2021/07/05 02:27:36;;;;;;;28.65;6.25;;;19.30;99.90;;;;;;5002731;28;20017;-90
2021/07/05 02:30:05;;;;;;;31.40;5.75;;;19.30;99.90;;;;;;5032570;28;20028;-89
2021/07/05 02:32:31;;;;;;;28.17;5.32;;;19.30;99.90;;;;;;5032535;28;20482;-89
2021/07/05 02:34:56;;;;;;;28.60;7.35;;;19.20;99.90;;;;;;5011340;28;20028;-89
2021/07/05 02:37:22;;;;;;;29.30;6.45;;;19.00;99.90;;;;;;5031181;28;20021;-88
2021/07/05 02:39:48;;;;;;;44.85;7.53;;;18.90;99.90;;;;;;5010965;28;20045;-88
2021/07/05 02:42:14;;;;;;;40.35;7.28;;;18.80;99.90;;;;;;5028619;28;20026;-89
2021/07/05 02:44:41;;;;;;;26.85;5.60;;;18.70;99.90;;;;;;5032097;28;20049;-88
2021/07/05 02:47:07;;;;;;;23.70;5.80;;;18.70;99.90;;;;;;5032300;28;20071;-90
2021/07/05 02:49:33;;;;;;;29.85;6.03;;;18.60;99.90;;;;;;5014647;28;20025;-88
2021/07/05 02:51:59;;;;;;;24.88;6.00;;;18.50;99.90;;;;;;5011006;28;20266;-89
2021/07/05 02:54:24;;;;;;;27.15;5.40;;;18.50;99.90;;;;;;5031072;28;20100;-88
2021/07/05 02:56:50;;;;;;;27.13;4.93;;;18.40;99.90;;;;;;5031678;28;20473;-88
2021/07/05 02:59:16;;;;;;;31.45;5.90;;;18.40;99.90;;;;;;5032317;28;20095;-90
2021/07/05 03:01:42;;;;;;;31.13;5.25;;;18.40;99.90;;;;;;5010949;28;20078;-89
2021/07/05 03:04:07;;;;;;;23.73;5.28;;;18.40;99.90;;;;;;5020134;28;20490;-89
2021/07/05 03:06:33;;;;;;;17.63;4.40;;;18.40;99.90;;;;;;5031309;28;20421;-88
2021/07/05 03:08:59;;;;;;;22.85;4.75;;;18.40;99.90;;;;;;5014305;28;20036;-89
2021/07/05 03:11:24;;;;;;;20.05;3.72;;;18.30;99.90;;;;;;5031942;28;20458;-92
2021/07/05 03:13:50;;;;;;;16.50;3.67;;;18.30;99.90;;;;;;5024454;28;20483;-89
2021/07/05 03:16:16;;;;;;;16.92;3.58;;;18.30;99.90;;;;;;5023662;28;20025;-89
2021/07/05 03:18:42;;;;;;;16.27;4.15;;;18.30;99.90;;;;;;5009652;28;20470;-89
2021/07/05 03:21:07;;;;;;;25.92;4.70;;;18.30;99.90;;;;;;5004008;28;20288;-88
2021/07/05 03:23:33;;;;;;;16.45;2.83;;;18.30;99.90;;;;;;5028238;28;20870;-88
2021/07/05 03:25:59;;;;;;;17.42;2.50;;;18.30;99.90;;;;;;4993547;28;20048;-89
2021/07/05 03:28:25;;;;;;;16.98;2.60;;;18.30;99.90;;;;;;5005576;28;20044;-88
2021/07/05 03:30:53;;;;;;;11.27;1.80;;;18.30;99.90;;;;;;5031194;28;20033;-91
2021/07/05 03:33:19;;;;;;;14.45;2.00;;;18.20;99.90;;;;;;5029994;28;20117;-88
2021/07/05 03:35:45;;;;;;;15.88;1.95;;;18.20;99.90;;;;;;5030974;28;20071;-89
2021/07/05 03:38:12;;;;;;;11.75;2.03;;;18.20;99.90;;;;;;5009932;28;20367;-89
2021/07/05 03:40:39;;;;;;;18.42;1.92;;;18.20;99.90;;;;;;5025040;28;20113;-88
2021/07/05 03:43:06;;;;;;;23.35;3.55;;;18.20;99.90;;;;;;5020487;28;20079;-89
2021/07/05 03:45:34;;;;;;;12.40;1.63;;;18.20;99.90;;;;;;5030528;28;20022;-88
2021/07/05 03:48:01;;;;;;;12.05;1.63;;;18.10;99.90;;;;;;5009220;28;20069;-89
2021/07/05 03:50:28;;;;;;;14.15;1.50;;;18.10;99.90;;;;;;5024383;28;20026;-88
2021/07/05 03:52:54;;;;;;;12.55;1.55;;;18.10;99.90;;;;;;5030314;28;20394;-89
2021/07/05 03:55:22;;;;;;;12.05;1.50;;;18.00;99.90;;;;;;5030203;28;20049;-89
2021/07/05 03:57:49;;;;;;;8.00;1.98;;;18.10;99.90;;;;;;5030098;28;20053;-93
2021/07/05 04:00:20;;;;;;;5.22;0.70;;;18.00;99.90;;;;;;5010091;28;20120;-89
2021/07/05 04:02:46;;;;;;;6.93;1.10;;;18.00;99.90;;;;;;5010851;28;20049;-88
2021/07/05 04:05:13;;;;;;;5.18;1.38;;;18.00;99.90;;;;;;5012903;28;20029;-89
2021/07/05 04:07:41;;;;;;;7.15;1.45;;;18.00;99.90;;;;;;5013190;28;20040;-90
2021/07/05 04:10:07;;;;;;;7.70;1.15;;;18.00;99.90;;;;;;5009695;28;20026;-89
2021/07/05 04:12:34;;;;;;;8.35;1.15;;;18.00;99.90;;;;;;5004033;28;20029;-89
2021/07/05 04:14:59;;;;;;;8.90;0.93;;;18.00;99.90;;;;;;5011839;28;20041;-88
2021/07/05 04:17:25;;;;;;;7.38;1.45;;;18.00;99.90;;;;;;5012670;28;20059;-89
2021/07/05 04:19:51;;;;;;;5.97;1.20;;;18.00;99.90;;;;;;5011381;28;20041;-89
2021/07/05 04:22:19;;;;;;;5.10;0.85;;;18.00;99.90;;;;;;4997607;28;20014;-89
2021/07/05 04:24:46;;;;;;;6.22;1.10;;;18.00;99.90;;;;;;5008669;28;20490;-90
2021/07/05 04:27:13;;;;;;;6.82;0.95;;;18.00;99.90;;;;;;5013373;28;20022;-88
2021/07/05 04:29:40;;;;;;;8.27;1.00;;;18.00;99.90;;;;;;5012430;28;20029;-91
2021/07/05 04:32:07;;;;;;;5.65;1.00;;;18.00;99.90;;;;;;5005662;28;20080;-89
2021/07/05 04:34:34;;;;;;;11.65;1.33;;;18.10;99.90;;;;;;4998246;28;20030;-89
2021/07/05 04:36:59;;;;;;;4.72;1.23;;;18.10;99.90;;;;;;5011251;28;20482;-89
2021/07/05 04:39:27;;;;;;;8.50;1.42;;;18.10;99.90;;;;;;5012008;28;20040;-89
2021/07/05 04:41:53;;;;;;;6.60;0.90;;;18.10;99.90;;;;;;5016489;28;20018;-89
2021/07/05 04:44:22;;;;;;;7.45;0.80;;;18.10;99.90;;;;;;5025729;28;20037;-89
2021/07/05 04:46:49;;;;;;;4.88;0.68;;;18.00;99.90;;;;;;5029109;28;20493;-88
2021/07/05 04:49:20;;;;;;;5.47;1.15;;;18.00;99.90;;;;;;5031736;28;20010;-90
2021/07/05 04:51:47;;;;;;;9.70;1.15;;;18.00;99.90;;;;;;5021286;28;20010;-89
2021/07/05 04:54:14;;;;;;;6.40;1.27;;;18.00;99.90;;;;;;5031323;28;20026;-90
2021/07/05 04:56:40;;;;;;;7.13;1.92;;;18.00;99.90;;;;;;5004263;28;20527;-90
2021/07/05 04:59:07;;;;;;;10.30;1.95;;;18.00;99.90;;;;;;5015744;28;20049;-89
2021/07/05 05:01:33;;;;;;;7.68;1.30;;;18.00;99.90;;;;;;5010894;28;20022;-88
2021/07/05 05:03:59;;;;;;;7.15;1.42;;;17.90;99.90;;;;;;5010565;28;20097;-89
2021/07/05 05:06:25;;;;;;;7.22;0.95;;;17.90;99.90;;;;;;5010115;28;20025;-89
2021/07/05 05:08:51;;;;;;;7.15;0.80;;;17.90;99.90;;;;;;5021788;28;20470;-89
2021/07/05 05:11:18;;;;;;;9.75;1.13;;;18.00;99.90;;;;;;5012767;28;20482;-88
2021/07/05 05:13:46;;;;;;;4.93;0.80;;;18.00;99.90;;;;;;4992283;28;20042;-88
2021/07/05 05:16:12;;;;;;;5.00;0.85;;;18.00;99.90;;;;;;5022483;28;20028;-89
2021/07/05 05:18:41;;;;;;;4.47;0.70;;;18.10;99.90;;;;;;5015869;28;20265;-88
2021/07/05 05:21:07;;;;;;;12.60;1.20;;;18.00;99.90;;;;;;5019589;28;20037;-88
2021/07/05 05:23:33;;;;;;;10.38;1.38;;;18.10;99.90;;;;;;5009608;28;20026;-90
2021/07/05 05:25:59;;;;;;;6.07;1.13;;;18.20;99.90;;;;;;5012054;28;20087;-89
2021/07/05 05:28:24;;;;;;;5.25;1.40;;;18.10;99.90;;;;;;5024528;28;20026;-89
2021/07/05 05:30:50;;;;;;;8.95;0.80;;;18.10;99.90;;;;;;5030657;28;20470;-88
2021/07/05 05:33:16;;;;;;;7.05;1.05;;;18.10;99.90;;;;;;5027291;28;20025;-89
2021/07/05 05:35:42;;;;;;;7.47;1.30;;;18.20;99.90;;;;;;5029762;28;20025;-89
2021/07/05 05:38:07;;;;;;;7.47;0.90;;;18.20;99.90;;;;;;5020959;28;20165;-89
2021/07/05 05:40:33;;;;;;;14.15;2.38;;;18.20;99.90;;;;;;5027570;28;20036;-91
2021/07/05 05:42:59;;;;;;;6.22;0.98;;;18.20;99.90;;;;;;5027272;28;20386;-90
2021/07/05 05:45:25;;;;;;;7.50;1.02;;;18.20;99.90;;;;;;5011848;28;20488;-90
2021/07/05 05:47:51;;;;;;;9.68;1.83;;;18.30;99.90;;;;;;5026361;28;20017;-89
2021/07/05 05:50:17;;;;;;;9.18;1.10;;;18.30;99.90;;;;;;5027163;28;20068;-90
2021/07/05 05:52:43;;;;;;;10.88;2.13;;;18.30;99.90;;;;;;5031823;28;20025;-88
2021/07/05 05:55:10;;;;;;;5.25;0.85;;;18.20;99.90;;;;;;5029410;28;20030;-89
2021/07/05 05:57:37;;;;;;;6.38;1.00;;;18.20;99.90;;;;;;5023559;28;20066;-89
2021/07/05 06:00:09;;;;;;;7.57;0.80;;;18.30;99.90;;;;;;5012635;28;20506;-88
2021/07/05 06:02:34;;;;;;;5.53;1.27;;;18.30;99.90;;;;;;5013873;28;20280;-89
2021/07/05 06:05:00;;;;;;;4.07;1.65;;;18.40;99.90;;;;;;5029101;28;20257;-89
2021/07/05 06:07:26;;;;;;;9.85;1.52;;;18.40;99.90;;;;;;5000779;28;20053;-89
2021/07/05 06:09:51;;;;;;;10.38;1.25;;;18.50;99.90;;;;;;5008354;28;20032;-89
2021/07/05 06:12:18;;;;;;;9.27;1.23;;;18.50;99.90;;;;;;5023941;28;20033;-88
2021/07/05 06:14:44;;;;;;;15.63;1.70;;;18.60;99.90;;;;;;5018447;28;20036;-89
2021/07/05 06:17:10;;;;;;;6.32;1.13;;;18.60;99.90;;;;;;5012878;28;20025;-89
2021/07/05 06:19:36;;;;;;;11.98;1.02;;;18.60;99.90;;;;;;5012619;28;20040;-89
2021/07/05 06:22:02;;;;;;;4.90;0.70;;;18.60;99.90;;;;;;5016797;28;20390;-89
2021/07/05 06:24:28;;;;;;;8.82;1.23;;;18.60;99.90;;;;;;5022755;28;20116;-89
2021/07/05 06:26:54;;;;;;;6.97;0.80;;;18.60;99.90;;;;;;5012649;28;20495;-89
2021/07/05 06:29:20;;;;;;;5.57;1.00;;;18.60;99.90;;;;;;5012476;28;20026;-88
2021/07/05 06:31:45;;;;;;;9.68;1.30;;;18.60;99.90;;;;;;5008219;28;20033;-88
2021/07/05 06:34:11;;;;;;;7.85;1.05;;;18.60;99.90;;;;;;5031637;28;20021;-89
2021/07/05 06:36:38;;;;;;;7.53;0.75;;;18.60;99.90;;;;;;5012083;28;20025;-89
2021/07/05 06:39:04;;;;;;;6.40;0.77;;;18.70;99.90;;;;;;5014454;28;20528;-90
2021/07/05 06:41:29;;;;;;;11.95;0.85;;;18.70;99.90;;;;;;5024016;28;20072;-74
2021/07/05 06:43:55;;;;;;;8.73;1.10;;;18.70;99.90;;;;;;5021152;28;20107;-74
2021/07/05 06:46:21;;;;;;;8.70;1.60;;;18.70;99.90;;;;;;5023867;28;20463;-74
2021/07/05 06:48:50;;;;;;;9.10;1.40;;;18.70;99.90;;;;;;5018914;28;20021;-74
2021/07/05 06:51:16;;;;;;;12.02;0.98;;;18.90;99.90;;;;;;5024530;28;20030;-74
2021/07/05 06:53:42;;;;;;;7.93;0.90;;;18.90;99.90;;;;;;5019368;28;20053;-74
2021/07/05 06:56:08;;;;;;;9.63;1.10;;;19.00;99.90;;;;;;5023399;28;20421;-74
2021/07/05 06:58:35;;;;;;;7.60;0.90;;;19.10;99.90;;;;;;5020818;28;20049;-74
2021/07/05 07:01:02;;;;;;;8.25;1.25;;;19.00;99.90;;;;;;5021246;28;20461;-74
2021/07/05 07:03:28;;;;;;;8.52;1.05;;;19.10;99.90;;;;;;5022938;28;20018;-74
2021/07/05 07:05:55;;;;;;;6.32;0.85;;;19.20;99.90;;;;;;5019382;28;20088;-74
2021/07/05 07:08:21;;;;;;;7.07;1.00;;;19.10;99.90;;;;;;5023565;28;20109;-74
2021/07/05 07:10:47;;;;;;;8.57;1.17;;;19.10;99.90;;;;;;5018215;28;20029;-74
2021/07/05 07:13:13;;;;;;;6.00;0.70;;;19.20;99.90;;;;;;5028301;28;20018;-74
2021/07/05 07:15:39;;;;;;;6.28;0.70;;;19.20;99.90;;;;;;5010707;28;20022;-74
2021/07/05 07:20:35;;;;;;;7.57;1.10;;;18.90;99.90;;;;;;5010523;28;20022;-74
2021/07/05 07:23:00;;;;;;;10.95;1.13;;;18.90;99.90;;;;;;5010711;28;20556;-74
2021/07/05 07:25:26;;;;;;;6.53;1.10;;;18.90;99.90;;;;;;5010532;28;20109;-74
2021/07/05 07:27:52;;;;;;;6.60;1.08;;;18.90;99.90;;;;;;5010599;28;20104;-74
2021/07/05 07:30:19;;;;;;;8.27;1.10;;;18.90;99.90;;;;;;5010080;28;20022;-73
2021/07/05 07:32:45;;;;;;;8.15;1.00;;;18.90;99.90;;;;;;5010356;28;20532;-74
2021/07/05 07:35:14;;;;;;;8.70;0.88;;;18.90;99.90;;;;;;5010424;28;20017;-74
2021/07/05 07:37:42;;;;;;;8.88;1.00;;;19.00;99.90;;;;;;5010603;28;20482;-74
2021/07/05 07:40:23;;;;;;;8.80;1.08;;;19.10;99.90;;;;;;5023213;28;20071;-74
2021/07/05 07:42:49;;;;;;;10.32;0.80;;;19.10;99.90;;;;;;5017716;28;20041;-73
2021/07/05 07:45:17;;;;;;;12.43;0.90;;;19.00;99.90;;;;;;5029983;28;20111;-73
2021/07/05 07:47:43;;;;;;;7.82;1.00;;;19.00;99.90;;;;;;5029605;28;20274;-74
2021/07/05 07:50:11;;;;;;;7.72;1.70;;;19.00;99.90;;;;;;5022870;28;20101;-73
2021/07/05 07:52:37;;;;;;;8.07;1.10;;;19.00;99.90;;;;;;5025356;28;20014;-74
2021/07/05 07:55:05;;;;;;;7.60;1.52;;;19.00;99.90;;;;;;5024925;28;20100;-73
2021/07/05 07:57:31;;;;;;;6.97;1.40;;;19.00;99.90;;;;;;5024013;28;20041;-74
2021/07/05 07:59:57;;;;;;;9.27;1.50;;;19.20;99.90;;;;;;5017830;28;20494;-74
2021/07/05 08:02:22;;;;;;;6.25;1.55;;;19.30;99.90;;;;;;5005555;28;20045;-73
2021/07/05 08:04:48;;;;;;;9.13;1.05;;;19.30;99.90;;;;;;5027554;28;20099;-74
2021/07/05 08:07:14;;;;;;;12.32;1.02;;;19.30;99.90;;;;;;5028980;28;20026;-74
2021/07/05 08:09:40;;;;;;;5.72;1.17;;;19.30;99.90;;;;;;5011575;28;20040;-74
2021/07/05 08:12:07;;;;;;;7.53;1.20;;;19.50;99.90;;;;;;5016527;28;20026;-74
2021/07/05 08:14:33;;;;;;;4.93;0.80;;;19.70;99.90;;;;;;5016674;28;20045;-74
2021/07/05 08:16:59;;;;;;;5.20;0.85;;;19.80;99.90;;;;;;5009554;28;20025;-74
2021/07/05 08:19:25;;;;;;;5.80;0.80;;;19.80;99.90;;;;;;5009671;28;20754;-74
2021/07/05 08:21:50;;;;;;;6.63;1.33;;;20.00;99.90;;;;;;5009160;28;20068;-74
2021/07/05 08:24:16;;;;;;;6.43;0.90;;;19.80;99.90;;;;;;5009720;28;20026;-74
2021/07/05 08:26:42;;;;;;;8.85;1.02;;;19.60;99.90;;;;;;5009320;28;20053;-74
2021/07/05 08:29:08;;;;;;;7.90;1.63;;;19.40;99.90;;;;;;5009238;28;20034;-74
2021/07/05 08:31:33;;;;;;;4.47;0.68;;;19.40;99.90;;;;;;5010247;28;20037;-74
2021/07/05 08:34:00;;;;;;;6.80;1.00;;;19.40;99.90;;;;;;5009512;28;20068;-74
2021/07/05 08:36:27;;;;;;;6.80;0.93;;;19.30;99.90;;;;;;5009586;28;20018;-74
2021/07/05 08:38:53;;;;;;;3.60;0.73;;;19.30;99.90;;;;;;5021529;28;20053;-74
2021/07/05 08:41:20;;;;;;;5.97;1.30;;;19.30;99.90;;;;;;5029344;28;20051;-75
2021/07/05 08:43:47;;;;;;;4.90;1.20;;;19.40;99.90;;;;;;5029153;28;20057;-74
2021/07/05 08:46:17;;;;;;;5.97;0.80;;;19.60;99.90;;;;;;5029314;28;20064;-74
2021/07/05 08:48:44;;;;;;;5.07;0.82;;;19.70;99.90;;;;;;5030966;28;20048;-74
2021/07/05 08:51:13;;;;;;;4.13;0.80;;;19.80;99.90;;;;;;5032640;28;20029;-73
2021/07/05 08:53:40;;;;;;;5.95;0.80;;;19.80;99.90;;;;;;5031027;28;20370;-74
2021/07/05 08:56:07;;;;;;;4.78;0.57;;;19.90;99.90;;;;;;5029127;28;20032;-74
2021/07/05 08:58:32;;;;;;;9.80;1.02;;;19.90;99.90;;;;;;5028405;28;20339;-74
2021/07/05 09:00:58;;;;;;;5.80;0.77;;;20.10;99.90;;;;;;5028816;28;20034;-74
2021/07/05 09:03:27;;;;;;;5.38;0.65;;;20.20;99.90;;;;;;5028508;28;20131;-75
2021/07/05 09:06:16;;;;;;;3.40;0.60;;;20.30;99.90;;;;;;5030849;28;20026;-74
2021/07/05 09:08:59;;;;;;;5.65;0.70;;;20.20;99.90;;;;;;5032917;28;20032;-74
2021/07/05 09:11:47;;;;;;;3.03;0.40;;;20.30;99.90;;;;;;5032671;28;20014;-74
2021/07/05 09:14:18;;;;;;;4.57;0.68;;;20.30;99.90;;;;;;5023042;28;20022;-74
2021/07/05 09:16:46;;;;;;;6.07;0.82;;;20.30;99.90;;;;;;5012606;28;20512;-74
2021/07/05 09:19:20;;;;;;;8.45;0.65;;;20.20;99.90;;;;;;5012663;28;20501;-74
2021/07/05 09:21:54;;;;;;;5.60;1.00;;;20.40;99.90;;;;;;5012501;28;20071;-74
2021/07/05 09:24:36;;;;;;;3.83;0.73;;;20.40;99.90;;;;;;5013010;28;20033;-74
2021/07/05 09:27:09;;;;;;;7.20;1.00;;;20.60;99.90;;;;;;5012606;28;20379;-74
2021/07/05 09:29:37;;;;;;;1.83;0.52;;;20.60;99.90;;;;;;5012762;28;20074;-74
2021/07/05 09:32:06;;;;;;;4.55;0.70;;;20.60;99.90;;;;;;5012441;28;20054;-74
2021/07/05 09:34:41;;;;;;;5.63;0.77;;;20.80;99.90;;;;;;5012717;28;20526;-75
2021/07/05 09:37:23;;;;;;;4.53;0.65;;;20.90;99.90;;;;;;5012341;28;20406;-74
2021/07/05 09:40:04;;;;;;;4.55;0.95;;;21.00;99.90;;;;;;5012322;28;20025;-74
2021/07/05 09:42:34;;;;;;;4.88;0.70;;;21.40;99.90;;;;;;5030837;28;20021;-74
2021/07/05 09:45:02;;;;;;;3.15;0.98;;;21.50;99.90;;;;;;5032467;28;20037;-72
2021/07/05 09:47:28;;;;;;;4.35;0.90;;;21.80;99.90;;;;;;5032186;28;20045;-73
2021/07/05 09:49:57;;;;;;;3.55;0.82;;;21.90;99.90;;;;;;5031918;28;20446;-73
2021/07/05 09:52:26;;;;;;;3.13;0.68;;;21.50;99.90;;;;;;5032070;28;20025;-73
2021/07/05 09:55:05;;;;;;;5.20;1.10;;;21.50;99.90;;;;;;5032003;28;20021;-73
2021/07/05 09:58:06;;;;;;;5.20;0.70;;;21.40;99.90;;;;;;5031541;28;20605;-79
2021/07/05 10:00:38;;;;;;;8.93;1.23;;;21.50;99.90;;;;;;4989852;28;20061;-73
2021/07/05 10:03:08;;;;;;;3.83;0.73;;;21.60;99.90;;;;;;5025423;28;20061;-72
2021/07/05 10:05:35;;;;;;;7.55;1.23;;;21.60;99.90;;;;;;5031825;28;20025;-73
2021/07/05 10:08:05;;;;;;;3.55;0.75;;;21.70;99.90;;;;;;5027888;28;20378;-73
2021/07/05 10:10:31;;;;;;;6.65;0.98;;;21.80;99.90;;;;;;5032133;28;20025;-73
2021/07/05 10:13:09;;;;;;;6.28;1.00;;;21.50;99.90;;;;;;5031631;28;20356;-73
2021/07/05 10:15:36;;;;;;;3.42;0.80;;;21.40;99.90;;;;;;5011937;28;20021;-73
2021/07/05 10:18:04;;;;;;;4.65;0.40;;;21.30;99.90;;;;;;5010753;28;20517;-73
2021/07/05 10:20:32;;;;;;;4.75;0.90;;;21.20;99.90;;;;;;5011457;28;20022;-73
2021/07/05 10:23:03;;;;;;;5.65;0.80;;;21.30;99.90;;;;;;5011761;28;20045;-73
2021/07/05 10:25:31;;;;;;;5.40;0.82;;;21.40;99.90;;;;;;5012066;28;20022;-73
2021/07/05 10:27:57;;;;;;;6.43;0.90;;;21.50;99.90;;;;;;5019984;28;20419;-73
2021/07/05 10:30:24;;;;;;;4.22;0.70;;;21.70;99.90;;;;;;5011496;28;20013;-73
2021/07/05 10:32:50;;;;;;;5.95;0.90;;;21.70;99.90;;;;;;5015052;28;20041;-73
2021/07/05 10:35:21;;;;;;;2.88;0.80;;;21.80;99.90;;;;;;5025883;28;20017;-73
2021/07/05 10:38:16;;;;;;;3.75;0.90;;;21.90;99.90;;;;;;5011348;28;20537;-73
2021/07/05 10:40:47;;;;;;;3.13;1.10;;;22.00;99.90;;;;;;5030529;28;20430;-73
2021/07/05 10:43:22;;;;;;;4.13;0.90;;;22.10;99.90;;;;;;5031312;28;20029;-73
2021/07/05 10:45:59;;;;;;;3.72;0.73;;;22.10;99.90;;;;;;5031084;28;20029;-73
2021/07/05 10:48:31;;;;;;;4.15;0.75;;;22.00;99.90;;;;;;5031012;28;20009;-73
2021/07/05 10:51:01;;;;;;;2.58;0.80;;;22.10;99.90;;;;;;5030971;28;20026;-73
2021/07/05 10:53:33;;;;;;;5.15;1.00;;;22.10;99.90;;;;;;5030724;28;20035;-72
2021/07/05 10:56:01;;;;;;;3.08;0.65;;;22.10;99.90;;;;;;5030885;28;20030;-72
2021/07/05 10:58:29;;;;;;;3.45;0.80;;;22.10;99.90;;;;;;5029070;28;20053;-73
2021/07/05 11:01:06;;;;;;;2.13;0.60;;;22.00;99.90;;;;;;5030652;28;20457;-75
2021/07/05 11:03:38;;;;;;;5.57;1.17;;;22.50;99.90;;;;;;5030778;28;20105;-73
2021/07/05 11:06:09;;;;;;;3.88;0.95;;;22.70;99.90;;;;;;5030561;28;20026;-73
2021/07/05 11:08:42;;;;;;;3.58;0.95;;;22.70;99.90;;;;;;5014044;28;20524;-73
2021/07/05 11:11:27;;;;;;;3.33;0.70;;;22.60;99.90;;;;;;5023061;28;20018;-73
2021/07/05 11:14:13;;;;;;;6.35;0.90;;;22.50;99.90;;;;;;5023406;28;20575;-73
2021/07/05 11:17:03;;;;;;;5.13;1.00;;;22.60;99.90;;;;;;5027681;28;20172;-73
2021/07/05 11:19:41;;;;;;;2.70;0.77;;;22.40;99.90;;;;;;5027121;28;20025;-73
2021/07/05 11:22:27;;;;;;;5.55;1.13;;;22.60;99.90;;;;;;5027327;28;20033;-73
2021/07/05 11:25:13;;;;;;;3.28;1.02;;;22.80;99.90;;;;;;5009088;28;20053;-73
2021/07/05 11:27:46;;;;;;;8.25;1.50;;;22.90;99.90;;;;;;5010770;28;20446;-72
2021/07/05 11:30:17;;;;;;;3.85;1.30;;;22.80;99.90;;;;;;5024618;28;20024;-73
2021/07/05 11:32:46;;;;;;;3.55;0.80;;;22.80;99.90;;;;;;5018636;28;20031;-73
2021/07/05 11:35:48;;;;;;;4.07;0.70;;;22.60;99.90;;;;;;5027809;28;20018;-73
2021/07/05 11:38:28;;;;;;;3.95;0.73;;;22.40;99.90;;;;;;5019069;28;20014;-74
2021/07/05 11:40:54;;;;;;;3.35;0.80;;;22.70;99.90;;;;;;5022120;28;20045;-73
2021/07/05 11:43:41;;;;;;;4.53;0.90;;;23.00;99.90;;;;;;5018310;28;20026;-72
2021/07/05 11:46:09;;;;;;;4.20;1.00;;;22.90;99.90;;;;;;5022720;28;20104;-73
2021/07/05 11:48:40;;;;;;;3.90;0.90;;;22.90;99.90;;;;;;5016937;28;20032;-73
2021/07/05 11:51:25;;;;;;;2.38;0.70;;;23.10;99.90;;;;;;5025590;28;20024;-73
2021/07/05 11:54:22;;;;;;;2.85;0.98;;;23.40;99.90;;;;;;5016722;28;20029;-73
2021/07/05 11:56:50;;;;;;;4.88;0.82;;;23.20;99.90;;;;;;5018383;28;20038;-74
2021/07/05 11:59:24;;;;;;;5.38;0.85;;;23.40;99.90;;;;;;5019044;28;20493;-73
2021/07/05 12:01:57;;;;;;;5.50;1.38;;;23.40;99.90;;;;;;5019906;28;20093;-72
2021/07/05 12:04:30;;;;;;;5.28;1.02;;;23.30;99.90;;;;;;5019375;28;20117;-72
2021/07/05 12:06:56;;;;;;;3.35;0.90;;;23.40;99.90;;;;;;5022059;28;20052;-74
2021/07/05 12:09:27;;;;;;;4.32;1.00;;;23.60;99.90;;;;;;5029115;28;20557;-73
2021/07/05 12:11:53;;;;;;;2.47;0.90;;;23.70;99.90;;;;;;5029844;28;20474;-76
2021/07/05 12:14:25;;;;;;;3.53;0.90;;;23.70;99.90;;;;;;5029958;28;20021;-73
2021/07/05 12:16:59;;;;;;;5.93;1.00;;;23.50;99.90;;;;;;5029670;28;20024;-73
2021/07/05 12:19:28;;;;;;;6.10;1.15;;;23.30;99.90;;;;;;5029387;28;20048;-73
2021/07/05 12:21:57;;;;;;;5.88;1.05;;;23.20;99.90;;;;;;5029180;28;20076;-73
2021/07/05 12:24:27;;;;;;;7.72;1.00;;;23.20;99.90;;;;;;5029461;28;20465;-73
2021/07/05 12:26:54;;;;;;;3.65;0.80;;;23.40;99.90;;;;;;5029373;28;20026;-73
2021/07/05 12:29:24;;;;;;;3.67;0.80;;;23.50;99.90;;;;;;5028508;28;20021;-73
2021/07/05 12:31:56;;;;;;;2.38;1.05;;;23.90;99.90;;;;;;5024996;28;20060;-73
2021/07/05 12:34:41;;;;;;;5.65;1.10;;;24.00;99.90;;;;;;5019486;28;20021;-73
2021/07/05 12:37:29;;;;;;;4.18;0.95;;;24.20;99.90;;;;;;5023920;28;20021;-73
2021/07/05 12:40:03;;;;;;;5.95;1.00;;;24.50;99.90;;;;;;5020997;28;20037;-73
2021/07/05 12:42:53;;;;;;;5.10;1.23;;;24.60;99.90;;;;;;5029507;28;20425;-73
2021/07/05 12:45:23;;;;;;;3.85;1.27;;;24.50;99.90;;;;;;5025888;28;20442;-73
2021/07/05 12:47:54;;;;;;;5.10;1.30;;;24.60;99.90;;;;;;5031094;28;20026;-74
2021/07/05 12:50:33;;;;;;;5.03;1.42;;;24.20;99.90;;;;;;5031301;28;20041;-74
2021/07/05 12:53:08;;;;;;;13.30;1.42;;;24.50;99.90;;;;;;5023384;28;20033;-75